Time;durP1;ratioP1;P1;durP2;ratioP2;P2;SDS_P1;SDS_P2;PMS_P1;PMS_P2;Temp;Humidity;BMP_temperature;BMP_pressure;BME280_temperature;BME280_humidity;BME280_pressure;Samples;Min_cycle;Max_cycle;Signal;HPM_P1;HPM_P2
2021/09/26 00:00:02;;;;;;;;;29.75;29.75;;;;;;;;5033074;28;8878;-84
2021/09/26 00:02:30;;;;;;;;;30.25;29.50;;;;;;;;5034367;28;8964;-82
2021/09/26 00:04:58;;;;;;;;;32.00;30.75;;;;;;;;5036640;28;9009;-83
2021/09/26 00:07:28;;;;;;;;;32.00;29.75;;;;;;;;5016272;28;9023;-83
2021/09/26 00:09:55;;;;;;;;;38.75;33.50;;;;;;;;5038391;28;8921;-75
2021/09/26 00:12:23;;;;;;;;;35.00;31.75;;;;;;;;5033429;28;8881;-83
2021/09/26 00:14:50;;;;;;;;;25.75;25.75;;;;;;;;5043577;28;9648;-82
2021/09/26 00:17:17;;;;;;;;;17.75;17.75;;;;;;;;5025797;28;9644;-82
2021/09/26 00:19:46;;;;;;;;;28.00;26.75;;;;;;;;5030408;28;8883;-79
2021/09/26 00:22:14;;;;;;;;;29.00;25.25;;;;;;;;5037037;28;8825;-78
2021/09/26 00:24:41;;;;;;;;;31.25;29.00;;;;;;;;5041657;28;8976;-77
2021/09/26 00:27:10;;;;;;;;;28.00;26.50;;;;;;;;5041004;28;9005;-79
2021/09/26 00:29:37;;;;;;;;;27.00;26.00;;;;;;;;5037866;28;8997;-81
2021/09/26 00:32:06;;;;;;;;;28.25;28.25;;;;;;;;5036839;28;8927;-81
2021/09/26 00:34:33;;;;;;;;;23.25;21.50;;;;;;;;5041692;28;8987;-81
2021/09/26 00:37:02;;;;;;;;;25.25;25.25;;;;;;;;5032625;28;8864;-77
2021/09/26 00:39:29;;;;;;;;;22.25;22.25;;;;;;;;5035481;28;8855;-78
2021/09/26 00:41:56;;;;;;;;;26.75;25.50;;;;;;;;5043484;28;8977;-82
2021/09/26 00:44:24;;;;;;;;;27.00;26.00;;;;;;;;5029118;28;8892;-85
2021/09/26 00:46:51;;;;;;;;;23.50;22.50;;;;;;;;5024884;28;8856;-84
2021/09/26 00:49:20;;;;;;;;;28.75;28.25;;;;;;;;5034932;28;8905;-85
2021/09/26 00:51:48;;;;;;;;;28.50;28.25;;;;;;;;5034763;28;8961;-84
2021/09/26 00:54:17;;;;;;;;;30.50;29.25;;;;;;;;5032102;28;8889;-83
2021/09/26 00:56:47;;;;;;;;;32.75;30.00;;;;;;;;5038622;28;8948;-85
2021/09/26 00:59:14;;;;;;;;;25.75;25.75;;;;;;;;5036417;28;8873;-80
2021/09/26 01:01:42;;;;;;;;;24.00;23.00;;;;;;;;5033851;28;8825;-79
2021/09/26 01:04:09;;;;;;;;;30.25;30.25;;;;;;;;5042553;28;8897;-83
2021/09/26 01:06:45;;;;;;;;;25.25;23.00;;;;;;;;5044750;28;8896;-81
2021/09/26 01:09:21;;;;;;;;;31.50;29.25;;;;;;;;5039716;28;8854;-80
2021/09/26 01:11:55;;;;;;;;;30.75;30.00;;;;;;;;5039859;28;8855;-80
2021/09/26 01:14:26;;;;;;;;;32.25;31.00;;;;;;;;5042632;28;9636;-82
2021/09/26 01:17:03;;;;;;;;;30.25;29.25;;;;;;;;5040481;28;9631;-82
2021/09/26 01:19:58;;;;;;;;;38.00;34.25;;;;;;;;5034666;28;8903;-80
2021/09/26 01:22:39;;;;;;;;;34.00;32.00;;;;;;;;5036939;28;8856;-74
2021/09/26 01:25:26;;;;;;;;;37.50;34.00;;;;;;;;5029841;28;8973;-84
2021/09/26 01:28:11;;;;;;;;;41.25;34.00;;;;;;;;5037898;28;8888;-77
2021/09/26 01:30:44;;;;;;;;;39.00;35.75;;;;;;;;5026554;28;8803;-80
2021/09/26 01:33:17;;;;;;;;;42.50;37.25;;;;;;;;5034588;28;8869;-81
2021/09/26 01:35:55;;;;;;;;;37.25;33.75;;;;;;;;5038844;28;8862;-83
2021/09/26 01:38:27;;;;;;;;;44.75;36.75;;;;;;;;5036035;28;9613;-76
2021/09/26 01:40:58;;;;;;;;;41.25;34.75;;;;;;;;5038031;28;8911;-81
2021/09/26 01:43:30;;;;;;;;;46.50;38.75;;;;;;;;5029276;28;8871;-85
2021/09/26 01:45:59;;;;;;;;;40.75;35.75;;;;;;;;5039622;28;8909;-79
2021/09/26 01:48:34;;;;;;;;;48.25;40.25;;;;;;;;5038596;28;8856;-85
2021/09/26 01:51:03;;;;;;;;;42.25;37.50;;;;;;;;5037072;28;8882;-78
2021/09/26 01:53:32;;;;;;;;;40.50;35.50;;;;;;;;5037331;28;8973;-79
2021/09/26 01:55:59;;;;;;;;;38.50;34.25;;;;;;;;5029640;28;9660;-84
2021/09/26 01:58:28;;;;;;;;;44.25;38.00;;;;;;;;5040732;28;8881;-80
2021/09/26 02:00:55;;;;;;;;;42.50;35.50;;;;;;;;5029463;28;8806;-85
2021/09/26 02:03:24;;;;;;;;;48.75;38.75;;;;;;;;5042227;28;9022;-82
2021/09/26 02:05:52;;;;;;;;;38.50;35.25;;;;;;;;5034492;28;8858;-85
2021/09/26 02:08:19;;;;;;;;;50.25;41.50;;;;;;;;5045251;28;8878;-83
2021/09/26 02:10:50;;;;;;;;;46.25;38.75;;;;;;;;5047063;28;8862;-75
2021/09/26 02:13:17;;;;;;;;;49.50;41.00;;;;;;;;5041352;28;8878;-83
2021/09/26 02:15:45;;;;;;;;;50.00;41.33;;;;;;;;5046209;28;8858;-84
2021/09/26 02:18:13;;;;;;;;;44.50;38.75;;;;;;;;5046551;28;8998;-86
2021/09/26 02:20:43;;;;;;;;;47.50;40.25;;;;;;;;5032256;28;8987;-85
2021/09/26 02:23:11;;;;;;;;;41.00;36.25;;;;;;;;5035401;28;8867;-82
2021/09/26 02:25:39;;;;;;;;;54.25;44.75;;;;;;;;5035224;28;8863;-80
2021/09/26 02:28:08;;;;;;;;;44.75;39.00;;;;;;;;5033174;28;8868;-78
2021/09/26 02:30:36;;;;;;;;;54.00;43.00;;;;;;;;5029319;28;9612;-77
2021/09/26 02:33:03;;;;;;;;;48.00;41.25;;;;;;;;5043527;28;8870;-76
2021/09/26 02:35:31;;;;;;;;;47.50;39.25;;;;;;;;5036995;28;8854;-80
2021/09/26 02:38:00;;;;;;;;;49.75;41.75;;;;;;;;5040943;28;8846;-83
2021/09/26 02:40:27;;;;;;;;;46.50;37.75;;;;;;;;5044436;28;8886;-85
2021/09/26 02:43:07;;;;;;;;;49.50;39.00;;;;;;;;5046761;28;8886;-81
2021/09/26 02:45:37;;;;;;;;;46.50;37.75;;;;;;;;5038119;28;8862;-76
2021/09/26 02:48:09;;;;;;;;;49.00;39.25;;;;;;;;5045926;28;8997;-83
2021/09/26 02:50:36;;;;;;;;;43.75;37.25;;;;;;;;5035910;28;8877;-79
2021/09/26 02:53:07;;;;;;;;;50.00;39.75;;;;;;;;5018455;28;8877;-82
2021/09/26 02:55:35;;;;;;;;;48.00;40.25;;;;;;;;5028571;28;8837;-81
2021/09/26 02:58:03;;;;;;;;;47.50;39.00;;;;;;;;5039265;28;8969;-81
2021/09/26 03:00:35;;;;;;;;;49.50;40.00;;;;;;;;5037032;28;8922;-77
2021/09/26 03:03:09;;;;;;;;;41.50;35.00;;;;;;;;5036091;28;8870;-79
2021/09/26 03:05:37;;;;;;;;;44.00;38.00;;;;;;;;5040773;28;8866;-78
2021/09/26 03:08:06;;;;;;;;;46.75;38.25;;;;;;;;5046312;28;8867;-78
2021/09/26 03:10:34;;;;;;;;;48.50;40.00;;;;;;;;5038179;28;8904;-76
2021/09/26 03:13:01;;;;;;;;;41.50;37.75;;;;;;;;5043481;28;8862;-78
2021/09/26 03:15:29;;;;;;;;;46.00;39.25;;;;;;;;5044908;28;8873;-82
2021/09/26 03:17:56;;;;;;;;;44.25;38.00;;;;;;;;5038368;28;8987;-77
2021/09/26 03:20:24;;;;;;;;;40.75;35.75;;;;;;;;5037127;28;9025;-80
2021/09/26 03:22:54;;;;;;;;;40.75;37.50;;;;;;;;5040450;28;8874;-85
2021/09/26 03:25:22;;;;;;;;;40.50;36.25;;;;;;;;5014982;28;8876;-81
2021/09/26 03:27:50;;;;;;;;;44.25;37.75;;;;;;;;5045745;28;8973;-82
2021/09/26 03:30:18;;;;;;;;;35.00;32.50;;;;;;;;5030893;28;8862;-78
2021/09/26 03:32:47;;;;;;;;;40.50;35.25;;;;;;;;5038034;28;8866;-78
2021/09/26 03:35:14;;;;;;;;;38.25;34.50;;;;;;;;5036949;28;8972;-79
2021/09/26 03:37:42;;;;;;;;;31.25;31.25;;;;;;;;5041375;28;8900;-79
2021/09/26 03:40:10;;;;;;;;;41.50;35.25;;;;;;;;5034903;28;8862;-80
2021/09/26 03:42:40;;;;;;;;;37.00;32.00;;;;;;;;5046095;28;8897;-80
2021/09/26 03:45:09;;;;;;;;;32.00;29.50;;;;;;;;5042947;28;8862;-78
2021/09/26 03:47:37;;;;;;;;;32.75;32.00;;;;;;;;5017832;28;8896;-77
2021/09/26 03:50:06;;;;;;;;;32.50;28.00;;;;;;;;5020969;28;8851;-79
2021/09/26 03:52:35;;;;;;;;;25.00;25.00;;;;;;;;5032847;28;8856;-82
2021/09/26 03:55:02;;;;;;;;;30.25;27.00;;;;;;;;5031812;28;8852;-84
2021/09/26 03:57:29;;;;;;;;;32.25;31.00;;;;;;;;5037850;28;8885;-85
2021/09/26 03:59:59;;;;;;;;;29.50;29.50;;;;;;;;5033412;28;8890;-80
2021/09/26 04:02:26;;;;;;;;;28.50;28.25;;;;;;;;5011030;28;8821;-78
2021/09/26 04:04:53;;;;;;;;;28.00;28.00;;;;;;;;5034430;28;8883;-78
2021/09/26 04:07:21;;;;;;;;;33.75;32.25;;;;;;;;5035625;28;8829;-80
2021/09/26 04:09:48;;;;;;;;;32.75;29.25;;;;;;;;5039659;28;8868;-80
2021/09/26 04:12:15;;;;;;;;;28.00;28.00;;;;;;;;5033601;28;8874;-81
2021/09/26 04:14:43;;;;;;;;;28.25;28.25;;;;;;;;5042796;28;8908;-83
2021/09/26 04:17:12;;;;;;;;;25.00;23.00;;;;;;;;5043224;28;9029;-83
2021/09/26 04:19:39;;;;;;;;;28.75;27.50;;;;;;;;5039024;28;8863;-84
2021/09/26 04:22:07;;;;;;;;;31.25;29.50;;;;;;;;5032940;28;8866;-80
2021/09/26 04:24:34;;;;;;;;;37.75;33.50;;;;;;;;5011168;28;8879;-75
2021/09/26 04:27:01;;;;;;;;;25.50;25.50;;;;;;;;5031719;28;8882;-75
2021/09/26 04:29:28;;;;;;;;;32.00;30.25;;;;;;;;5044774;28;8873;-76
2021/09/26 04:31:56;;;;;;;;;43.25;33.50;;;;;;;;5038391;28;8834;-83
2021/09/26 04:34:27;;;;;;;;;33.25;30.00;;;;;;;;5038312;28;8981;-83
2021/09/26 04:36:55;;;;;;;;;35.00;32.25;;;;;;;;5040877;28;8876;-75
2021/09/26 04:39:22;;;;;;;;;30.25;30.25;;;;;;;;5017897;28;9471;-83
2021/09/26 04:41:49;;;;;;;;;25.50;24.75;;;;;;;;5042849;28;8893;-81
2021/09/26 04:44:17;;;;;;;;;31.75;29.75;;;;;;;;5038624;28;8892;-85
2021/09/26 04:46:44;;;;;;;;;26.75;25.50;;;;;;;;5042695;28;8966;-87
2021/09/26 04:49:12;;;;;;;;;28.50;25.75;;;;;;;;5034290;28;8877;-79
2021/09/26 04:51:40;;;;;;;;;26.00;26.00;;;;;;;;5025596;28;9692;-76
2021/09/26 04:54:08;;;;;;;;;22.00;20.00;;;;;;;;5032427;28;8874;-76
2021/09/26 04:56:35;;;;;;;;;27.25;27.25;;;;;;;;5042957;28;8888;-77
2021/09/26 04:59:03;;;;;;;;;31.25;29.50;;;;;;;;5039666;28;8915;-76
2021/09/26 05:01:30;;;;;;;;;22.25;22.25;;;;;;;;5033911;28;8850;-77
2021/09/26 05:03:57;;;;;;;;;21.25;21.25;;;;;;;;5037112;28;8850;-85
2021/09/26 05:06:25;;;;;;;;;21.75;21.75;;;;;;;;5030591;28;8871;-83
2021/09/26 05:08:54;;;;;;;;;20.75;20.25;;;;;;;;5042901;28;8873;-82
2021/09/26 05:11:21;;;;;;;;;24.75;24.50;;;;;;;;5036387;28;8904;-80
2021/09/26 05:13:49;;;;;;;;;31.00;26.00;;;;;;;;5037914;28;8891;-75
2021/09/26 05:16:16;;;;;;;;;25.75;24.25;;;;;;;;5041679;28;8854;-75
2021/09/26 05:18:43;;;;;;;;;27.75;26.25;;;;;;;;5035922;28;8957;-78
2021/09/26 05:21:11;;;;;;;;;24.75;20.75;;;;;;;;5029045;28;8856;-79
2021/09/26 05:23:38;;;;;;;;;22.50;22.50;;;;;;;;5036680;28;8867;-79
2021/09/26 05:26:08;;;;;;;;;22.00;22.00;;;;;;;;5007145;28;8959;-79
2021/09/26 05:28:35;;;;;;;;;22.75;22.75;;;;;;;;5030107;28;9000;-80
2021/09/26 05:31:03;;;;;;;;;22.75;22.25;;;;;;;;5034850;28;8805;-79
2021/09/26 05:33:31;;;;;;;;;30.25;27.25;;;;;;;;5012949;28;8896;-85
2021/09/26 05:35:59;;;;;;;;;31.75;30.00;;;;;;;;5032879;28;8892;-80
2021/09/26 05:38:27;;;;;;;;;24.25;23.00;;;;;;;;5030562;28;8852;-84
2021/09/26 05:40:54;;;;;;;;;23.25;22.50;;;;;;;;5036528;28;8873;-83
2021/09/26 05:43:23;;;;;;;;;26.50;24.50;;;;;;;;5044197;28;8849;-76
2021/09/26 05:45:50;;;;;;;;;29.50;29.25;;;;;;;;5035860;28;8918;-80
2021/09/26 05:48:18;;;;;;;;;29.50;27.75;;;;;;;;5036135;28;8900;-75
2021/09/26 05:50:45;;;;;;;;;25.00;24.00;;;;;;;;5043385;28;8843;-77
2021/09/26 05:53:12;;;;;;;;;22.75;22.75;;;;;;;;5039240;28;8862;-82
2021/09/26 05:55:39;;;;;;;;;28.75;27.25;;;;;;;;5041888;28;8859;-82
2021/09/26 05:58:07;;;;;;;;;26.75;25.00;;;;;;;;5045614;28;8878;-79
2021/09/26 06:00:35;;;;;;;;;28.25;25.00;;;;;;;;5040546;28;8890;-77
2021/09/26 06:03:03;;;;;;;;;23.00;22.00;;;;;;;;5032924;28;9682;-86
2021/09/26 06:05:30;;;;;;;;;30.50;28.00;;;;;;;;5033231;28;8847;-79
2021/09/26 06:07:58;;;;;;;;;23.50;23.50;;;;;;;;5035923;28;8858;-76
2021/09/26 06:10:25;;;;;;;;;25.00;24.00;;;;;;;;5046091;28;9454;-76
2021/09/26 06:12:53;;;;;;;;;25.00;23.50;;;;;;;;5038794;28;8944;-78
2021/09/26 06:15:20;;;;;;;;;20.75;17.50;;;;;;;;5037867;28;8868;-77
2021/09/26 06:17:49;;;;;;;;;21.75;21.75;;;;;;;;5021113;28;8885;-77
2021/09/26 06:20:16;;;;;;;;;21.00;21.00;;;;;;;;5033341;28;8869;-77
2021/09/26 06:22:44;;;;;;;;;19.75;19.75;;;;;;;;5041715;28;8843;-78
2021/09/26 06:25:12;;;;;;;;;17.75;17.75;;;;;;;;5041836;28;8875;-78
2021/09/26 06:27:39;;;;;;;;;15.50;15.50;;;;;;;;5040569;28;8890;-77
2021/09/26 06:30:08;;;;;;;;;15.75;15.75;;;;;;;;5034307;28;8863;-78
2021/09/26 06:32:35;;;;;;;;;21.00;18.25;;;;;;;;5039953;28;8896;-76
2021/09/26 06:35:07;;;;;;;;;16.75;16.75;;;;;;;;5037070;28;9241;-74
2021/09/26 06:37:35;;;;;;;;;18.50;15.50;;;;;;;;5040780;28;8862;-76
2021/09/26 06:40:02;;;;;;;;;14.25;14.25;;;;;;;;5043242;28;8842;-79
2021/09/26 06:42:29;;;;;;;;;16.75;15.50;;;;;;;;5030243;28;8895;-78
2021/09/26 06:44:57;;;;;;;;;15.00;14.00;;;;;;;;5037766;28;8864;-76
2021/09/26 06:47:25;;;;;;;;;15.50;15.50;;;;;;;;5041457;28;8870;-76
2021/09/26 06:49:52;;;;;;;;;17.25;16.50;;;;;;;;5042906;28;8852;-75
2021/09/26 06:52:21;;;;;;;;;16.75;15.75;;;;;;;;5038023;28;8865;-75
2021/09/26 06:54:49;;;;;;;;;18.00;15.25;;;;;;;;5037441;28;8898;-75
2021/09/26 06:57:17;;;;;;;;;17.00;16.00;;;;;;;;5032484;28;8871;-73
2021/09/26 06:59:45;;;;;;;;;15.75;15.25;;;;;;;;5037604;28;8878;-74
2021/09/26 07:02:14;;;;;;;;;16.75;15.25;;;;;;;;5038797;28;8807;-74
2021/09/26 07:04:41;;;;;;;;;14.25;14.25;;;;;;;;5042786;28;8877;-76
2021/09/26 07:07:08;;;;;;;;;16.50;15.00;;;;;;;;5043988;28;8859;-77
2021/09/26 07:09:39;;;;;;;;;17.00;17.00;;;;;;;;5041918;28;9001;-73
2021/09/26 07:12:07;;;;;;;;;19.00;15.50;;;;;;;;5039650;28;8863;-70
2021/09/26 07:14:35;;;;;;;;;16.50;16.50;;;;;;;;5040000;28;8844;-70
2021/09/26 07:17:02;;;;;;;;;15.25;15.25;;;;;;;;5038825;28;9701;-69
2021/09/26 07:19:29;;;;;;;;;20.50;18.25;;;;;;;;5039119;28;8854;-71
2021/09/26 07:21:57;;;;;;;;;21.25;20.00;;;;;;;;5040764;28;8858;-70
2021/09/26 07:24:24;;;;;;;;;18.25;18.25;;;;;;;;5041299;28;8847;-71
2021/09/26 07:26:53;;;;;;;;;25.00;23.75;;;;;;;;5031031;28;8991;-70
2021/09/26 07:29:20;;;;;;;;;22.50;22.50;;;;;;;;5032956;28;8863;-71
2021/09/26 07:31:48;;;;;;;;;21.00;21.00;;;;;;;;5039514;28;8846;-72
2021/09/26 07:34:15;;;;;;;;;24.50;21.50;;;;;;;;5021448;28;9703;-71
2021/09/26 07:36:43;;;;;;;;;19.75;19.75;;;;;;;;5033745;28;8868;-72
2021/09/26 07:39:10;;;;;;;;;25.75;22.50;;;;;;;;5033799;28;9740;-71
2021/09/26 07:41:38;;;;;;;;;25.75;24.50;;;;;;;;5039962;28;8846;-73
2021/09/26 07:44:07;;;;;;;;;22.50;22.50;;;;;;;;5041587;28;8977;-70
2021/09/26 07:46:34;;;;;;;;;20.50;20.50;;;;;;;;5043560;28;9021;-70
2021/09/26 07:49:03;;;;;;;;;22.00;20.50;;;;;;;;5038106;28;8908;-71
2021/09/26 07:51:30;;;;;;;;;21.25;20.75;;;;;;;;5037652;28;8858;-71
2021/09/26 07:53:57;;;;;;;;;25.75;23.50;;;;;;;;5043111;28;8847;-70
2021/09/26 07:56:25;;;;;;;;;23.25;20.50;;;;;;;;5043381;28;8850;-70
2021/09/26 07:58:52;;;;;;;;;23.50;22.50;;;;;;;;5045011;28;8903;-71
2021/09/26 08:01:21;;;;;;;;;25.50;25.50;;;;;;;;5040590;28;8829;-71
2021/09/26 08:03:48;;;;;;;;;27.00;24.50;;;;;;;;5035342;28;8912;-71
2021/09/26 08:06:18;;;;;;;;;26.50;25.25;;;;;;;;5040733;28;8882;-70
2021/09/26 08:08:45;;;;;;;;;24.75;24.75;;;;;;;;5044280;28;8855;-71
2021/09/26 08:11:12;;;;;;;;;31.00;25.00;;;;;;;;5040611;28;8850;-70
2021/09/26 08:13:39;;;;;;;;;29.25;27.50;;;;;;;;5040501;28;8843;-71
2021/09/26 08:16:07;;;;;;;;;25.25;25.25;;;;;;;;5043668;28;8854;-71
2021/09/26 08:18:36;;;;;;;;;21.25;21.25;;;;;;;;5039866;28;8868;-71
2021/09/26 08:21:03;;;;;;;;;30.50;26.00;;;;;;;;5038374;28;8972;-71
2021/09/26 08:23:30;;;;;;;;;29.50;29.50;;;;;;;;5035978;28;8851;-70
2021/09/26 08:25:57;;;;;;;;;27.50;24.75;;;;;;;;5037137;28;8873;-72
2021/09/26 08:28:26;;;;;;;;;25.00;25.00;;;;;;;;5036239;28;8847;-71
2021/09/26 08:30:53;;;;;;;;;32.50;27.75;;;;;;;;5038057;28;8921;-71
2021/09/26 08:33:20;;;;;;;;;28.00;28.00;;;;;;;;5032673;28;8853;-71
2021/09/26 08:35:49;;;;;;;;;29.00;25.75;;;;;;;;5031231;28;8862;-71
2021/09/26 08:38:16;;;;;;;;;22.00;21.25;;;;;;;;5039888;28;8870;-72
2021/09/26 08:40:44;;;;;;;;;29.50;24.50;;;;;;;;5036272;28;8862;-71
2021/09/26 08:43:11;;;;;;;;;25.00;25.00;;;;;;;;5041010;28;8855;-72
2021/09/26 08:45:40;;;;;;;;;27.00;25.25;;;;;;;;5038374;28;8851;-71
2021/09/26 08:48:08;;;;;;;;;24.50;23.25;;;;;;;;5040002;28;8979;-71
2021/09/26 08:50:36;;;;;;;;;27.50;25.00;;;;;;;;5039476;28;8854;-71
2021/09/26 08:53:07;;;;;;;;;18.00;16.00;;;;;;;;5036606;28;8997;-71
2021/09/26 08:55:35;;;;;;;;;19.50;17.75;;;;;;;;5032778;28;8900;-71
2021/09/26 08:58:03;;;;;;;;;19.00;19.00;;;;;;;;5033004;28;8888;-72
2021/09/26 09:00:31;;;;;;;;;23.00;20.00;;;;;;;;5008030;28;8917;-72
2021/09/26 09:02:58;;;;;;;;;17.25;17.25;;;;;;;;5040054;28;8913;-71
2021/09/26 09:05:30;;;;;;;;;23.75;20.75;;;;;;;;5031476;28;8904;-71
2021/09/26 09:08:18;;;;;;;;;24.75;24.75;;;;;;;;5033910;28;8858;-73
2021/09/26 09:10:48;;;;;;;;;22.00;20.75;;;;;;;;5027000;28;8896;-73
2021/09/26 09:13:18;;;;;;;;;23.50;22.00;;;;;;;;5033970;28;8896;-73
2021/09/26 09:15:53;;;;;;;;;22.00;20.00;;;;;;;;5030182;28;8888;-72
2021/09/26 09:18:22;;;;;;;;;27.50;20.75;;;;;;;;5038593;28;8894;-72
2021/09/26 09:20:50;;;;;;;;;23.00;22.00;;;;;;;;5039148;28;8862;-72
2021/09/26 09:23:20;;;;;;;;;22.75;20.50;;;;;;;;5034993;28;9657;-71
2021/09/26 09:25:50;;;;;;;;;19.00;19.00;;;;;;;;5038552;28;8861;-72
2021/09/26 09:28:19;;;;;;;;;21.25;21.25;;;;;;;;5040040;28;8881;-72
2021/09/26 09:30:48;;;;;;;;;20.50;18.50;;;;;;;;5033220;28;8895;-72
2021/09/26 09:33:16;;;;;;;;;17.75;17.75;;;;;;;;5036048;28;8957;-72
2021/09/26 09:35:47;;;;;;;;;20.00;20.00;;;;;;;;5027648;28;10164;-72
2021/09/26 09:38:19;;;;;;;;;20.25;17.00;;;;;;;;5030626;28;8861;-72
2021/09/26 09:40:51;;;;;;;;;22.00;20.00;;;;;;;;5035701;28;8877;-72
2021/09/26 09:43:19;;;;;;;;;15.25;12.50;;;;;;;;5036453;28;8860;-72
2021/09/26 09:45:52;;;;;;;;;19.50;17.25;;;;;;;;5035297;28;8895;-72
2021/09/26 09:48:21;;;;;;;;;15.00;13.60;;;;;;;;5037080;28;8861;-72
2021/09/26 09:50:54;;;;;;;;;16.60;12.60;;;;;;;;5030774;28;8884;-73
2021/09/26 09:53:34;;;;;;;;;14.00;14.00;;;;;;;;5035370;28;8865;-73
2021/09/26 09:56:11;;;;;;;;;16.40;13.20;;;;;;;;5030120;28;8872;-71
2021/09/26 09:58:41;;;;;;;;;15.20;15.00;;;;;;;;5033743;28;8877;-72
2021/09/26 10:01:10;;;;;;;;;9.60;9.60;;;;;;;;5030189;28;8824;-72
2021/09/26 10:03:50;;;;;;;;;12.40;12.00;;;;;;;;5037020;28;8881;-70
2021/09/26 10:06:26;;;;;;;;;12.60;12.60;;;;;;;;5029347;28;8877;-73
2021/09/26 10:08:57;;;;;;;;;15.80;15.40;;;;;;;;5036380;28;9027;-72
2021/09/26 10:11:24;;;;;;;;;13.60;13.60;;;;;;;;5031264;28;8894;-74
2021/09/26 10:13:52;;;;;;;;;9.60;9.60;;;;;;;;5034020;28;8871;-75
2021/09/26 10:16:19;;;;;;;;;12.20;12.20;;;;;;;;5027984;28;8876;-73
2021/09/26 10:18:46;;;;;;;;;12.20;12.20;;;;;;;;5039833;28;8917;-77
2021/09/26 10:21:14;;;;;;;;;15.00;13.20;;;;;;;;5035856;28;8899;-75
2021/09/26 10:23:43;;;;;;;;;13.20;13.20;;;;;;;;5037431;28;8901;-76
2021/09/26 10:26:13;;;;;;;;;13.60;13.60;;;;;;;;5035715;28;8873;-75
2021/09/26 10:28:42;;;;;;;;;14.00;14.00;;;;;;;;5035650;28;8893;-75
2021/09/26 10:31:10;;;;;;;;;10.00;10.00;;;;;;;;5034309;28;8829;-74
2021/09/26 10:33:38;;;;;;;;;12.80;11.60;;;;;;;;5040986;28;8877;-75
2021/09/26 10:36:09;;;;;;;;;13.00;11.60;;;;;;;;5036274;28;8871;-75
2021/09/26 10:38:37;;;;;;;;;13.60;11.80;;;;;;;;5039701;28;8876;-76
2021/09/26 10:41:06;;;;;;;;;13.00;13.00;;;;;;;;5042125;28;8892;-75
2021/09/26 10:43:35;;;;;;;;;16.80;13.00;;;;;;;;5037677;28;8911;-74
2021/09/26 10:46:24;;;;;;;;;18.00;14.60;;;;;;;;5032794;28;8991;-75
2021/09/26 10:49:12;;;;;;;;;14.40;14.40;;;;;;;;5037550;28;8892;-75
2021/09/26 10:51:47;;;;;;;;;18.20;15.80;;;;;;;;5039341;28;8899;-74
2021/09/26 10:54:34;;;;;;;;;17.20;17.20;;;;;;;;5027709;28;8894;-76
2021/09/26 10:57:32;;;;;;;;;15.20;15.20;;;;;;;;5029000;28;8894;-77
2021/09/26 11:00:05;;;;;;;;;16.60;16.60;;;;;;;;4974099;28;8912;-75
2021/09/26 11:02:47;;;;;;;;;15.00;13.80;;;;;;;;5027005;28;8821;-73
2021/09/26 11:05:34;;;;;;;;;16.60;16.60;;;;;;;;5031019;28;8875;-74
2021/09/26 11:08:02;;;;;;;;;16.60;15.40;;;;;;;;5035555;28;9014;-74
2021/09/26 11:10:39;;;;;;;;;17.00;14.60;;;;;;;;5036814;28;8865;-73
2021/09/26 11:13:12;;;;;;;;;13.60;13.00;;;;;;;;5033514;28;9012;-75
2021/09/26 11:16:00;;;;;;;;;15.00;14.80;;;;;;;;5034595;28;9587;-74
2021/09/26 11:18:48;;;;;;;;;17.80;14.60;;;;;;;;5033377;28;8911;-76
2021/09/26 11:21:54;;;;;;;;;16.80;16.20;;;;;;;;5034654;28;8881;-77
2021/09/26 11:24:52;;;;;;;;;13.00;13.00;;;;;;;;5037565;28;8965;-77
2021/09/26 11:27:33;;;;;;;;;11.00;9.80;;;;;;;;5040422;28;8871;-75
2021/09/26 11:30:25;;;;;;;;;13.20;11.80;;;;;;;;5035711;28;8881;-77
2021/09/26 11:33:08;;;;;;;;;12.00;12.00;;;;;;;;5033374;28;8920;-75
2021/09/26 11:35:37;;;;;;;;;12.60;12.60;;;;;;;;5031334;28;8918;-75
2021/09/26 11:38:08;;;;;;;;;9.00;9.00;;;;;;;;5038809;28;8859;-74
2021/09/26 11:41:04;;;;;;;;;12.00;10.40;;;;;;;;5036095;28;8940;-78
2021/09/26 11:43:34;;;;;;;;;12.80;12.60;;;;;;;;5026698;28;8873;-74
2021/09/26 11:46:14;;;;;;;;;11.80;11.00;;;;;;;;5033987;28;8869;-73
2021/09/26 11:48:43;;;;;;;;;11.80;11.80;;;;;;;;5036717;28;8857;-75
2021/09/26 11:51:13;;;;;;;;;14.00;11.40;;;;;;;;5029181;28;9000;-75
2021/09/26 11:53:42;;;;;;;;;10.40;10.40;;;;;;;;5039779;28;8877;-75
2021/09/26 11:56:15;;;;;;;;;13.60;11.20;;;;;;;;5033342;28;8903;-78
2021/09/26 11:58:43;;;;;;;;;12.20;12.20;;;;;;;;5040390;28;8873;-77
2021/09/26 12:01:11;;;;;;;;;10.60;10.60;;;;;;;;5037227;28;8976;-78
2021/09/26 12:03:38;;;;;;;;;8.60;8.60;;;;;;;;5037150;28;8894;-76
2021/09/26 12:06:07;;;;;;;;;11.00;9.60;;;;;;;;5031724;28;8855;-76
2021/09/26 12:08:39;;;;;;;;;9.80;9.80;;;;;;;;5039941;28;8873;-76
2021/09/26 12:11:08;;;;;;;;;9.00;9.00;;;;;;;;5032702;28;9014;-77
2021/09/26 12:13:49;;;;;;;;;11.20;9.60;;;;;;;;5034393;28;9062;-79
2021/09/26 12:16:17;;;;;;;;;11.20;10.60;;;;;;;;5034294;28;8962;-75
2021/09/26 12:18:54;;;;;;;;;10.20;9.80;;;;;;;;5028661;28;9001;-75
2021/09/26 12:21:26;;;;;;;;;12.00;12.00;;;;;;;;5036381;28;8931;-74
2021/09/26 12:23:58;;;;;;;;;10.20;10.20;;;;;;;;5020192;28;8893;-78
2021/09/26 12:26:28;;;;;;;;;10.60;9.20;;;;;;;;5014626;28;9040;-76
2021/09/26 12:29:04;;;;;;;;;10.40;9.20;;;;;;;;5011793;28;9731;-76
2021/09/26 12:31:33;;;;;;;;;10.80;10.80;;;;;;;;5012465;28;8885;-76
2021/09/26 12:34:01;;;;;;;;;12.20;9.80;;;;;;;;5013261;28;8885;-76
2021/09/26 12:36:32;;;;;;;;;9.60;9.60;;;;;;;;5022099;28;8893;-76
2021/09/26 12:39:01;;;;;;;;;9.20;9.20;;;;;;;;5019448;28;8881;-76
2021/09/26 12:41:31;;;;;;;;;10.80;9.20;;;;;;;;5012870;28;8999;-76
2021/09/26 12:44:01;;;;;;;;;11.00;9.20;;;;;;;;5019001;28;8917;-76
2021/09/26 12:46:31;;;;;;;;;8.40;8.40;;;;;;;;5011353;28;9669;-76
2021/09/26 12:48:59;;;;;;;;;10.00;10.00;;;;;;;;5019898;28;8927;-76
2021/09/26 12:51:30;;;;;;;;;12.60;10.00;;;;;;;;5014233;28;9017;-76
2021/09/26 12:54:01;;;;;;;;;9.20;9.20;;;;;;;;5005449;28;8887;-76
2021/09/26 12:56:32;;;;;;;;;9.00;9.00;;;;;;;;5012497;28;8865;-76
2021/09/26 12:59:17;;;;;;;;;10.40;8.00;;;;;;;;5015345;28;8871;-76
2021/09/26 13:01:44;;;;;;;;;10.40;8.60;;;;;;;;5018541;28;8802;-76
2021/09/26 13:04:15;;;;;;;;;8.20;7.80;;;;;;;;5014860;28;8869;-76
2021/09/26 13:06:50;;;;;;;;;8.80;8.60;;;;;;;;4997875;28;8877;-76
2021/09/26 13:09:21;;;;;;;;;10.40;10.40;;;;;;;;5015608;28;9719;-77
2021/09/26 13:11:49;;;;;;;;;8.60;8.40;;;;;;;;5003545;28;8885;-77
2021/09/26 13:14:33;;;;;;;;;8.00;8.00;;;;;;;;5016209;28;8877;-77
2021/09/26 13:17:17;;;;;;;;;7.20;7.20;;;;;;;;5019048;28;8866;-77
2021/09/26 13:19:46;;;;;;;;;10.40;8.80;;;;;;;;5010038;28;8888;-76
2021/09/26 13:22:27;;;;;;;;;10.40;10.40;;;;;;;;5024174;28;8940;-76
2021/09/26 13:25:22;;;;;;;;;8.00;8.00;;;;;;;;5035440;28;8904;-76
2021/09/26 13:28:01;;;;;;;;;7.40;7.40;;;;;;;;5033268;28;8908;-77
2021/09/26 13:30:31;;;;;;;;;7.20;7.20;;;;;;;;5030067;28;8827;-76
2021/09/26 13:33:02;;;;;;;;;8.80;8.80;;;;;;;;5030459;28;8846;-77
2021/09/26 13:35:32;;;;;;;;;8.40;8.40;;;;;;;;5034376;28;8847;-76
2021/09/26 13:38:27;;;;;;;;;12.00;10.00;;;;;;;;5023287;28;8854;-76
2021/09/26 13:41:22;;;;;;;;;8.80;8.80;;;;;;;;5027364;28;8868;-77
2021/09/26 13:44:01;;;;;;;;;8.20;8.20;;;;;;;;5025389;28;8908;-76
2021/09/26 13:46:29;;;;;;;;;11.80;11.80;;;;;;;;5032268;28;9642;-76
2021/09/26 13:48:56;;;;;;;;;7.80;7.80;;;;;;;;5012527;28;8891;-79
2021/09/26 13:51:24;;;;;;;;;9.40;9.40;;;;;;;;5033092;28;8878;-76
2021/09/26 13:53:52;;;;;;;;;12.00;10.20;;;;;;;;5033952;28;8874;-75
2021/09/26 13:56:20;;;;;;;;;10.40;10.40;;;;;;;;5034425;28;8885;-77
2021/09/26 13:58:48;;;;;;;;;12.60;12.60;;;;;;;;5037070;28;8893;-76
2021/09/26 14:01:16;;;;;;;;;12.80;12.40;;;;;;;;5042242;28;8831;-75
2021/09/26 14:03:43;;;;;;;;;13.80;12.00;;;;;;;;5041339;28;8843;-75
2021/09/26 14:06:11;;;;;;;;;12.20;10.80;;;;;;;;5033621;28;8856;-75
2021/09/26 14:08:39;;;;;;;;;9.40;9.40;;;;;;;;5033320;28;8852;-75
2021/09/26 14:11:07;;;;;;;;;11.80;11.80;;;;;;;;5035682;28;8880;-75
2021/09/26 14:13:37;;;;;;;;;12.40;12.40;;;;;;;;5043209;28;8877;-76
2021/09/26 14:16:07;;;;;;;;;15.00;11.80;;;;;;;;5036243;28;8894;-76
2021/09/26 14:18:35;;;;;;;;;10.00;8.60;;;;;;;;5043625;28;8850;-75
2021/09/26 14:21:04;;;;;;;;;10.60;10.60;;;;;;;;5042353;28;8875;-75
2021/09/26 14:23:32;;;;;;;;;13.60;13.60;;;;;;;;5035134;28;8920;-75
2021/09/26 14:26:00;;;;;;;;;13.40;11.60;;;;;;;;5041739;28;8857;-75
2021/09/26 14:28:28;;;;;;;;;11.60;11.60;;;;;;;;5041220;28;8870;-74
2021/09/26 14:30:58;;;;;;;;;12.00;8.60;;;;;;;;5039114;28;8896;-75
2021/09/26 14:33:26;;;;;;;;;7.80;7.20;;;;;;;;5040757;28;8846;-75
2021/09/26 14:35:53;;;;;;;;;8.20;8.20;;;;;;;;5035674;28;8874;-75
2021/09/26 14:38:22;;;;;;;;;11.20;11.20;;;;;;;;5038667;28;8844;-74
2021/09/26 14:40:49;;;;;;;;;8.20;8.20;;;;;;;;5041523;28;9679;-74
2021/09/26 14:43:17;;;;;;;;;6.00;6.00;;;;;;;;5038536;28;8914;-74
2021/09/26 14:45:45;;;;;;;;;10.20;9.00;;;;;;;;5033239;28;8987;-76
2021/09/26 14:48:16;;;;;;;;;7.20;7.20;;;;;;;;5030367;28;8866;-76
2021/09/26 14:50:44;;;;;;;;;5.60;5.60;;;;;;;;5035324;28;8877;-75